sensor_id;sensor_type;location;lat;lon;timestamp;P1;durP1;ratioP1;P2;durP2;ratioP2
11663;SDS011;72375;59.302;18.204;2024-03-02T00:01:57;12.67;;;7.40;;
11663;SDS011;72375;59.302;18.204;2024-03-02T00:04:44;11.67;;;7.37;;
11663;SDS011;72375;59.302;18.204;2024-03-02T00:07:30;13.30;;;7.70;;
11663;SDS011;72375;59.302;18.204;2024-03-02T00:10:16;13.43;;;7.57;;
11663;SDS011;72375;59.302;18.204;2024-03-02T00:13:04;12.77;;;7.07;;
11663;SDS011;72375;59.302;18.204;2024-03-02T00:15:53;13.40;;;7.80;;
11663;SDS011;72375;59.302;18.204;2024-03-02T00:18:39;11.87;;;7.50;;
11663;SDS011;72375;59.302;18.204;2024-03-02T00:21:26;11.77;;;6.67;;
11663;SDS011;72375;59.302;18.204;2024-03-02T00:24:17;9.57;;;7.53;;
11663;SDS011;72375;59.302;18.204;2024-03-02T00:27:06;12.87;;;8.40;;
11663;SDS011;72375;59.302;18.204;2024-03-02T00:29:54;14.13;;;7.73;;
11663;SDS011;72375;59.302;18.204;2024-03-02T00:32:43;11.77;;;7.70;;
11663;SDS011;72375;59.302;18.204;2024-03-02T00:35:29;13.43;;;7.63;;
11663;SDS011;72375;59.302;18.204;2024-03-02T00:38:14;13.10;;;8.20;;
11663;SDS011;72375;59.302;18.204;2024-03-02T00:41:04;12.67;;;7.97;;
11663;SDS011;72375;59.302;18.204;2024-03-02T00:43:57;12.17;;;8.43;;
11663;SDS011;72375;59.302;18.204;2024-03-02T00:46:43;12.23;;;8.50;;
11663;SDS011;72375;59.302;18.204;2024-03-02T00:49:30;12.40;;;8.37;;
11663;SDS011;72375;59.302;18.204;2024-03-02T00:52:16;12.63;;;8.50;;
11663;SDS011;72375;59.302;18.204;2024-03-02T00:55:02;12.30;;;8.70;;
11663;SDS011;72375;59.302;18.204;2024-03-02T00:57:49;13.37;;;8.87;;
11663;SDS011;72375;59.302;18.204;2024-03-02T01:00:35;13.87;;;8.77;;
11663;SDS011;72375;59.302;18.204;2024-03-02T01:03:20;14.20;;;8.23;;
11663;SDS011;72375;59.302;18.204;2024-03-02T01:06:07;12.23;;;8.43;;
11663;SDS011;72375;59.302;18.204;2024-03-02T01:08:53;15.60;;;9.67;;
11663;SDS011;72375;59.302;18.204;2024-03-02T01:11:39;14.07;;;9.17;;
11663;SDS011;72375;59.302;18.204;2024-03-02T01:14:25;14.23;;;8.90;;
11663;SDS011;72375;59.302;18.204;2024-03-02T01:17:10;12.43;;;8.43;;
11663;SDS011;72375;59.302;18.204;2024-03-02T01:19:56;13.20;;;8.93;;
11663;SDS011;72375;59.302;18.204;2024-03-02T01:22:43;14.33;;;8.73;;
11663;SDS011;72375;59.302;18.204;2024-03-02T01:25:29;14.57;;;8.90;;
11663;SDS011;72375;59.302;18.204;2024-03-02T01:28:15;13.57;;;8.50;;
11663;SDS011;72375;59.302;18.204;2024-03-02T01:31:00;11.93;;;8.23;;
11663;SDS011;72375;59.302;18.204;2024-03-02T01:33:46;16.87;;;9.50;;
11663;SDS011;72375;59.302;18.204;2024-03-02T01:36:32;13.40;;;8.90;;
11663;SDS011;72375;59.302;18.204;2024-03-02T01:39:19;16.33;;;8.53;;
11663;SDS011;72375;59.302;18.204;2024-03-02T01:42:05;14.47;;;8.90;;
11663;SDS011;72375;59.302;18.204;2024-03-02T01:44:50;15.30;;;8.30;;
11663;SDS011;72375;59.302;18.204;2024-03-02T01:47:36;14.80;;;8.50;;
11663;SDS011;72375;59.302;18.204;2024-03-02T01:50:25;15.43;;;8.90;;
11663;SDS011;72375;59.302;18.204;2024-03-02T01:53:12;15.37;;;8.90;;
11663;SDS011;72375;59.302;18.204;2024-03-02T01:55:59;13.33;;;8.73;;
11663;SDS011;72375;59.302;18.204;2024-03-02T01:58:45;14.90;;;9.27;;
11663;SDS011;72375;59.302;18.204;2024-03-02T02:01:31;13.70;;;8.50;;
11663;SDS011;72375;59.302;18.204;2024-03-02T02:04:16;13.00;;;8.60;;
11663;SDS011;72375;59.302;18.204;2024-03-02T02:07:02;15.60;;;9.27;;
11663;SDS011;72375;59.302;18.204;2024-03-02T02:09:48;13.87;;;8.90;;
11663;SDS011;72375;59.302;18.204;2024-03-02T02:12:35;13.90;;;9.70;;
11663;SDS011;72375;59.302;18.204;2024-03-02T02:15:21;14.20;;;8.67;;
11663;SDS011;72375;59.302;18.204;2024-03-02T02:18:07;15.47;;;10.00;;
11663;SDS011;72375;59.302;18.204;2024-03-02T02:20:53;15.17;;;9.70;;
11663;SDS011;72375;59.302;18.204;2024-03-02T02:23:40;14.00;;;8.73;;
11663;SDS011;72375;59.302;18.204;2024-03-02T02:26:30;13.57;;;8.57;;
11663;SDS011;72375;59.302;18.204;2024-03-02T02:29:16;15.70;;;9.17;;
11663;SDS011;72375;59.302;18.204;2024-03-02T02:32:01;14.10;;;9.27;;
11663;SDS011;72375;59.302;18.204;2024-03-02T02:34:48;15.47;;;9.17;;
11663;SDS011;72375;59.302;18.204;2024-03-02T02:37:37;14.77;;;8.60;;
11663;SDS011;72375;59.302;18.204;2024-03-02T02:40:25;16.63;;;10.50;;
11663;SDS011;72375;59.302;18.204;2024-03-02T02:43:10;15.60;;;10.33;;
11663;SDS011;72375;59.302;18.204;2024-03-02T02:45:56;17.77;;;10.67;;
11663;SDS011;72375;59.302;18.204;2024-03-02T02:48:42;16.87;;;10.27;;
11663;SDS011;72375;59.302;18.204;2024-03-02T02:51:27;17.67;;;10.27;;
11663;SDS011;72375;59.302;18.204;2024-03-02T02:54:13;15.80;;;9.30;;
11663;SDS011;72375;59.302;18.204;2024-03-02T02:57:00;16.20;;;10.40;;
11663;SDS011;72375;59.302;18.204;2024-03-02T02:59:46;16.13;;;9.87;;
11663;SDS011;72375;59.302;18.204;2024-03-02T03:02:31;16.73;;;9.60;;
11663;SDS011;72375;59.302;18.204;2024-03-02T03:05:17;16.27;;;9.77;;
11663;SDS011;72375;59.302;18.204;2024-03-02T03:08:03;16.77;;;10.27;;
11663;SDS011;72375;59.302;18.204;2024-03-02T03:10:49;15.10;;;10.17;;
11663;SDS011;72375;59.302;18.204;2024-03-02T03:13:37;20.03;;;10.40;;
11663;SDS011;72375;59.302;18.204;2024-03-02T03:16:23;14.33;;;9.27;;
11663;SDS011;72375;59.302;18.204;2024-03-02T03:19:09;16.30;;;10.47;;
11663;SDS011;72375;59.302;18.204;2024-03-02T03:21:54;16.17;;;10.33;;
11663;SDS011;72375;59.302;18.204;2024-03-02T03:24:40;15.17;;;9.90;;
11663;SDS011;72375;59.302;18.204;2024-03-02T03:27:26;13.40;;;9.77;;
11663;SDS011;72375;59.302;18.204;2024-03-02T03:30:13;14.57;;;9.73;;
11663;SDS011;72375;59.302;18.204;2024-03-02T03:32:59;17.20;;;10.10;;
11663;SDS011;72375;59.302;18.204;2024-03-02T03:35:45;14.27;;;9.10;;
11663;SDS011;72375;59.302;18.204;2024-03-02T03:38:31;21.83;;;11.77;;
11663;SDS011;72375;59.302;18.204;2024-03-02T03:41:17;15.33;;;10.23;;
11663;SDS011;72375;59.302;18.204;2024-03-02T03:44:03;15.80;;;10.77;;
11663;SDS011;72375;59.302;18.204;2024-03-02T03:46:50;18.00;;;10.53;;
11663;SDS011;72375;59.302;18.204;2024-03-02T03:49:36;16.07;;;10.43;;
11663;SDS011;72375;59.302;18.204;2024-03-02T03:52:21;15.27;;;10.07;;
11663;SDS011;72375;59.302;18.204;2024-03-02T03:55:07;18.27;;;10.97;;
11663;SDS011;72375;59.302;18.204;2024-03-02T03:57:53;19.60;;;10.13;;
11663;SDS011;72375;59.302;18.204;2024-03-02T04:00:39;15.17;;;9.53;;
11663;SDS011;72375;59.302;18.204;2024-03-02T04:03:26;15.03;;;9.60;;
11663;SDS011;72375;59.302;18.204;2024-03-02T04:06:12;16.70;;;10.50;;
11663;SDS011;72375;59.302;18.204;2024-03-02T04:08:57;16.53;;;10.87;;
11663;SDS011;72375;59.302;18.204;2024-03-02T04:11:43;15.47;;;10.23;;
11663;SDS011;72375;59.302;18.204;2024-03-02T04:14:29;14.17;;;10.03;;
11663;SDS011;72375;59.302;18.204;2024-03-02T04:17:15;15.97;;;10.57;;
11663;SDS011;72375;59.302;18.204;2024-03-02T04:20:02;15.20;;;9.87;;
11663;SDS011;72375;59.302;18.204;2024-03-02T04:22:49;15.13;;;9.93;;
11663;SDS011;72375;59.302;18.204;2024-03-02T04:25:35;17.83;;;10.20;;
11663;SDS011;72375;59.302;18.204;2024-03-02T04:28:21;15.00;;;9.57;;
11663;SDS011;72375;59.302;18.204;2024-03-02T04:31:06;15.23;;;10.37;;
11663;SDS011;72375;59.302;18.204;2024-03-02T04:33:52;15.03;;;9.93;;
11663;SDS011;72375;59.302;18.204;2024-03-02T04:36:39;16.30;;;10.47;;
11663;SDS011;72375;59.302;18.204;2024-03-02T04:39:24;17.97;;;11.53;;
11663;SDS011;72375;59.302;18.204;2024-03-02T04:42:11;16.33;;;10.27;;
11663;SDS011;72375;59.302;18.204;2024-03-02T04:44:56;16.60;;;9.87;;
11663;SDS011;72375;59.302;18.204;2024-03-02T04:47:42;16.93;;;11.10;;
11663;SDS011;72375;59.302;18.204;2024-03-02T04:50:28;18.13;;;10.37;;
11663;SDS011;72375;59.302;18.204;2024-03-02T04:53:14;17.50;;;11.17;;
11663;SDS011;72375;59.302;18.204;2024-03-02T04:56:00;17.30;;;10.40;;
11663;SDS011;72375;59.302;18.204;2024-03-02T04:59:03;18.77;;;11.27;;
11663;SDS011;72375;59.302;18.204;2024-03-02T05:01:49;16.37;;;10.17;;
11663;SDS011;72375;59.302;18.204;2024-03-02T05:04:34;15.60;;;9.60;;
11663;SDS011;72375;59.302;18.204;2024-03-02T05:07:20;19.07;;;10.20;;
11663;SDS011;72375;59.302;18.204;2024-03-02T05:10:08;15.57;;;10.23;;
11663;SDS011;72375;59.302;18.204;2024-03-02T05:12:53;17.90;;;10.83;;
11663;SDS011;72375;59.302;18.204;2024-03-02T05:15:43;16.63;;;10.70;;
11663;SDS011;72375;59.302;18.204;2024-03-02T05:18:28;17.17;;;10.73;;
11663;SDS011;72375;59.302;18.204;2024-03-02T05:21:14;17.60;;;10.63;;
11663;SDS011;72375;59.302;18.204;2024-03-02T05:24:00;18.47;;;10.97;;
11663;SDS011;72375;59.302;18.204;2024-03-02T05:26:47;15.77;;;10.47;;
11663;SDS011;72375;59.302;18.204;2024-03-02T05:29:32;21.40;;;11.33;;
11663;SDS011;72375;59.302;18.204;2024-03-02T05:32:18;18.90;;;11.00;;
11663;SDS011;72375;59.302;18.204;2024-03-02T05:35:04;19.57;;;10.83;;
11663;SDS011;72375;59.302;18.204;2024-03-02T05:37:51;17.77;;;11.17;;
11663;SDS011;72375;59.302;18.204;2024-03-02T05:40:37;16.73;;;10.30;;
11663;SDS011;72375;59.302;18.204;2024-03-02T05:43:24;16.00;;;10.60;;
11663;SDS011;72375;59.302;18.204;2024-03-02T05:46:09;19.03;;;11.20;;
11663;SDS011;72375;59.302;18.204;2024-03-02T05:48:55;18.90;;;10.40;;
11663;SDS011;72375;59.302;18.204;2024-03-02T05:51:41;21.53;;;10.87;;
11663;SDS011;72375;59.302;18.204;2024-03-02T05:54:27;16.43;;;10.20;;
11663;SDS011;72375;59.302;18.204;2024-03-02T05:57:12;17.73;;;10.87;;
11663;SDS011;72375;59.302;18.204;2024-03-02T06:00:17;16.63;;;10.60;;
11663;SDS011;72375;59.302;18.204;2024-03-02T06:03:03;20.23;;;10.50;;
11663;SDS011;72375;59.302;18.204;2024-03-02T06:05:49;16.77;;;10.77;;
11663;SDS011;72375;59.302;18.204;2024-03-02T06:08:35;17.47;;;11.17;;
11663;SDS011;72375;59.302;18.204;2024-03-02T06:11:21;16.87;;;10.57;;
11663;SDS011;72375;59.302;18.204;2024-03-02T06:14:07;17.87;;;11.37;;
11663;SDS011;72375;59.302;18.204;2024-03-02T06:16:55;18.60;;;10.97;;
11663;SDS011;72375;59.302;18.204;2024-03-02T06:19:40;15.77;;;10.27;;
11663;SDS011;72375;59.302;18.204;2024-03-02T06:22:26;15.20;;;10.40;;
11663;SDS011;72375;59.302;18.204;2024-03-02T06:25:12;18.33;;;10.60;;
11663;SDS011;72375;59.302;18.204;2024-03-02T06:27:58;20.00;;;11.00;;
11663;SDS011;72375;59.302;18.204;2024-03-02T06:30:44;18.87;;;10.70;;
11663;SDS011;72375;59.302;18.204;2024-03-02T06:33:31;17.47;;;9.83;;
11663;SDS011;72375;59.302;18.204;2024-03-02T06:36:16;19.47;;;11.00;;
11663;SDS011;72375;59.302;18.204;2024-03-02T06:39:02;22.23;;;11.03;;
11663;SDS011;72375;59.302;18.204;2024-03-02T06:41:48;15.80;;;9.47;;
11663;SDS011;72375;59.302;18.204;2024-03-02T06:44:33;15.90;;;10.27;;
11663;SDS011;72375;59.302;18.204;2024-03-02T06:47:19;19.53;;;10.87;;
11663;SDS011;72375;59.302;18.204;2024-03-02T06:50:07;18.37;;;10.63;;
11663;SDS011;72375;59.302;18.204;2024-03-02T06:52:53;19.50;;;10.83;;
11663;SDS011;72375;59.302;18.204;2024-03-02T06:55:39;16.27;;;9.87;;
11663;SDS011;72375;59.302;18.204;2024-03-02T06:58:25;15.60;;;10.17;;
11663;SDS011;72375;59.302;18.204;2024-03-02T07:01:11;19.70;;;10.47;;
11663;SDS011;72375;59.302;18.204;2024-03-02T07:03:56;16.23;;;11.07;;
11663;SDS011;72375;59.302;18.204;2024-03-02T07:06:44;14.77;;;9.63;;
11663;SDS011;72375;59.302;18.204;2024-03-02T07:09:29;17.43;;;10.37;;
11663;SDS011;72375;59.302;18.204;2024-03-02T07:12:15;16.17;;;9.87;;
11663;SDS011;72375;59.302;18.204;2024-03-02T07:15:01;14.83;;;9.00;;
11663;SDS011;72375;59.302;18.204;2024-03-02T07:18:04;18.33;;;10.27;;
11663;SDS011;72375;59.302;18.204;2024-03-02T07:20:49;20.30;;;10.40;;
11663;SDS011;72375;59.302;18.204;2024-03-02T07:23:37;17.67;;;9.83;;
11663;SDS011;72375;59.302;18.204;2024-03-02T07:26:22;19.23;;;9.80;;
11663;SDS011;72375;59.302;18.204;2024-03-02T07:29:08;17.17;;;9.97;;
11663;SDS011;72375;59.302;18.204;2024-03-02T07:31:53;16.93;;;9.83;;
11663;SDS011;72375;59.302;18.204;2024-03-02T07:34:39;18.43;;;10.30;;
11663;SDS011;72375;59.302;18.204;2024-03-02T07:37:25;18.03;;;9.50;;
11663;SDS011;72375;59.302;18.204;2024-03-02T07:40:12;16.57;;;9.53;;
11663;SDS011;72375;59.302;18.204;2024-03-02T07:42:58;16.27;;;9.90;;
11663;SDS011;72375;59.302;18.204;2024-03-02T07:45:43;20.87;;;11.00;;
11663;SDS011;72375;59.302;18.204;2024-03-02T07:48:29;14.30;;;8.70;;
11663;SDS011;72375;59.302;18.204;2024-03-02T07:51:14;12.17;;;8.70;;
11663;SDS011;72375;59.302;18.204;2024-03-02T07:54:00;18.53;;;9.50;;
11663;SDS011;72375;59.302;18.204;2024-03-02T07:56:47;13.07;;;8.47;;
11663;SDS011;72375;59.302;18.204;2024-03-02T07:59:33;14.83;;;9.53;;
11663;SDS011;72375;59.302;18.204;2024-03-02T08:02:19;18.73;;;9.07;;
11663;SDS011;72375;59.302;18.204;2024-03-02T08:05:06;15.37;;;9.27;;
11663;SDS011;72375;59.302;18.204;2024-03-02T08:07:51;13.93;;;9.10;;
11663;SDS011;72375;59.302;18.204;2024-03-02T08:10:37;15.90;;;8.93;;
11663;SDS011;72375;59.302;18.204;2024-03-02T08:13:24;15.23;;;9.83;;
11663;SDS011;72375;59.302;18.204;2024-03-02T08:16:10;15.07;;;9.60;;
11663;SDS011;72375;59.302;18.204;2024-03-02T08:18:55;16.57;;;9.17;;
11663;SDS011;72375;59.302;18.204;2024-03-02T08:21:42;13.60;;;9.50;;
11663;SDS011;72375;59.302;18.204;2024-03-02T08:24:28;13.93;;;8.83;;
11663;SDS011;72375;59.302;18.204;2024-03-02T08:27:14;13.57;;;8.93;;
11663;SDS011;72375;59.302;18.204;2024-03-02T08:30:00;15.57;;;9.37;;
11663;SDS011;72375;59.302;18.204;2024-03-02T08:32:50;18.03;;;8.97;;
11663;SDS011;72375;59.302;18.204;2024-03-02T08:35:35;11.87;;;7.53;;
11663;SDS011;72375;59.302;18.204;2024-03-02T08:38:21;12.73;;;8.07;;
11663;SDS011;72375;59.302;18.204;2024-03-02T08:41:07;11.00;;;8.23;;
11663;SDS011;72375;59.302;18.204;2024-03-02T08:43:53;17.47;;;8.93;;
11663;SDS011;72375;59.302;18.204;2024-03-02T08:46:40;18.13;;;9.53;;
11663;SDS011;72375;59.302;18.204;2024-03-02T08:49:26;13.47;;;8.73;;
11663;SDS011;72375;59.302;18.204;2024-03-02T08:52:12;14.90;;;8.73;;
11663;SDS011;72375;59.302;18.204;2024-03-02T08:54:57;12.53;;;8.90;;
11663;SDS011;72375;59.302;18.204;2024-03-02T08:57:43;13.63;;;8.60;;
11663;SDS011;72375;59.302;18.204;2024-03-02T09:00:29;15.90;;;9.10;;
11663;SDS011;72375;59.302;18.204;2024-03-02T09:03:16;14.43;;;9.03;;
11663;SDS011;72375;59.302;18.204;2024-03-02T09:06:01;16.53;;;8.83;;
11663;SDS011;72375;59.302;18.204;2024-03-02T09:08:47;14.83;;;8.67;;
11663;SDS011;72375;59.302;18.204;2024-03-02T09:11:35;13.97;;;8.50;;
11663;SDS011;72375;59.302;18.204;2024-03-02T09:14:21;13.57;;;8.50;;
11663;SDS011;72375;59.302;18.204;2024-03-02T09:17:07;14.90;;;8.53;;
11663;SDS011;72375;59.302;18.204;2024-03-02T09:19:55;12.63;;;8.73;;
11663;SDS011;72375;59.302;18.204;2024-03-02T09:22:41;12.63;;;8.33;;
11663;SDS011;72375;59.302;18.204;2024-03-02T09:25:27;12.07;;;8.63;;
11663;SDS011;72375;59.302;18.204;2024-03-02T09:28:13;12.77;;;8.03;;
11663;SDS011;72375;59.302;18.204;2024-03-02T09:31:01;15.67;;;9.27;;
11663;SDS011;72375;59.302;18.204;2024-03-02T09:33:46;12.77;;;8.50;;
11663;SDS011;72375;59.302;18.204;2024-03-02T09:36:33;13.03;;;8.17;;
11663;SDS011;72375;59.302;18.204;2024-03-02T09:39:19;12.83;;;8.43;;
11663;SDS011;72375;59.302;18.204;2024-03-02T09:42:04;12.53;;;7.87;;
11663;SDS011;72375;59.302;18.204;2024-03-02T09:44:51;13.37;;;8.27;;
11663;SDS011;72375;59.302;18.204;2024-03-02T09:47:37;14.10;;;8.27;;
11663;SDS011;72375;59.302;18.204;2024-03-02T09:50:23;14.07;;;8.77;;
11663;SDS011;72375;59.302;18.204;2024-03-02T09:53:10;12.47;;;9.00;;
11663;SDS011;72375;59.302;18.204;2024-03-02T09:55:58;10.83;;;7.20;;
11663;SDS011;72375;59.302;18.204;2024-03-02T09:58:44;12.40;;;8.13;;
11663;SDS011;72375;59.302;18.204;2024-03-02T10:01:30;14.40;;;8.77;;
11663;SDS011;72375;59.302;18.204;2024-03-02T10:04:15;14.60;;;7.97;;
11663;SDS011;72375;59.302;18.204;2024-03-02T10:07:11;13.43;;;8.23;;
11663;SDS011;72375;59.302;18.204;2024-03-02T10:10:00;12.10;;;8.03;;
11663;SDS011;72375;59.302;18.204;2024-03-02T10:12:59;13.53;;;8.43;;
11663;SDS011;72375;59.302;18.204;2024-03-02T10:15:50;12.37;;;8.17;;
11663;SDS011;72375;59.302;18.204;2024-03-02T10:18:35;12.30;;;8.63;;
11663;SDS011;72375;59.302;18.204;2024-03-02T10:21:21;11.73;;;8.10;;
11663;SDS011;72375;59.302;18.204;2024-03-02T10:24:08;11.53;;;7.53;;
11663;SDS011;72375;59.302;18.204;2024-03-02T10:26:55;12.47;;;7.90;;
11663;SDS011;72375;59.302;18.204;2024-03-02T10:29:42;10.43;;;7.57;;
11663;SDS011;72375;59.302;18.204;2024-03-02T10:32:30;12.53;;;7.13;;
11663;SDS011;72375;59.302;18.204;2024-03-02T10:35:16;9.83;;;8.10;;
11663;SDS011;72375;59.302;18.204;2024-03-02T10:38:03;14.87;;;8.03;;
11663;SDS011;72375;59.302;18.204;2024-03-02T10:40:50;12.97;;;8.30;;
11663;SDS011;72375;59.302;18.204;2024-03-02T10:43:38;15.17;;;8.40;;
11663;SDS011;72375;59.302;18.204;2024-03-02T10:46:23;11.77;;;7.93;;
11663;SDS011;72375;59.302;18.204;2024-03-02T10:49:12;12.03;;;7.87;;
11663;SDS011;72375;59.302;18.204;2024-03-02T10:51:58;9.83;;;7.50;;
11663;SDS011;72375;59.302;18.204;2024-03-02T10:54:43;12.03;;;8.03;;
11663;SDS011;72375;59.302;18.204;2024-03-02T10:57:29;10.50;;;8.03;;
11663;SDS011;72375;59.302;18.204;2024-03-02T11:00:24;13.67;;;7.67;;
11663;SDS011;72375;59.302;18.204;2024-03-02T11:03:13;11.17;;;7.27;;
11663;SDS011;72375;59.302;18.204;2024-03-02T11:06:00;12.30;;;8.07;;
11663;SDS011;72375;59.302;18.204;2024-03-02T11:08:50;12.83;;;7.13;;
11663;SDS011;72375;59.302;18.204;2024-03-02T11:11:43;11.00;;;7.50;;
11663;SDS011;72375;59.302;18.204;2024-03-02T11:14:31;13.30;;;7.73;;
11663;SDS011;72375;59.302;18.204;2024-03-02T11:17:19;15.47;;;8.67;;
11663;SDS011;72375;59.302;18.204;2024-03-02T11:20:06;12.47;;;7.80;;
11663;SDS011;72375;59.302;18.204;2024-03-02T11:22:53;11.33;;;7.33;;
11663;SDS011;72375;59.302;18.204;2024-03-02T11:25:39;11.87;;;7.70;;
11663;SDS011;72375;59.302;18.204;2024-03-02T11:28:34;10.63;;;7.23;;
11663;SDS011;72375;59.302;18.204;2024-03-02T11:31:21;13.47;;;7.53;;
11663;SDS011;72375;59.302;18.204;2024-03-02T11:34:20;12.20;;;7.20;;
11663;SDS011;72375;59.302;18.204;2024-03-02T11:37:14;11.30;;;7.63;;
11663;SDS011;72375;59.302;18.204;2024-03-02T11:40:00;11.27;;;7.10;;
11663;SDS011;72375;59.302;18.204;2024-03-02T11:42:47;11.47;;;7.40;;
11663;SDS011;72375;59.302;18.204;2024-03-02T11:45:32;12.00;;;8.17;;
11663;SDS011;72375;59.302;18.204;2024-03-02T11:48:18;11.13;;;6.70;;
11663;SDS011;72375;59.302;18.204;2024-03-02T11:51:06;10.63;;;7.30;;
11663;SDS011;72375;59.302;18.204;2024-03-02T11:53:52;11.83;;;7.23;;
11663;SDS011;72375;59.302;18.204;2024-03-02T11:56:41;8.90;;;6.47;;
11663;SDS011;72375;59.302;18.204;2024-03-02T11:59:27;11.23;;;7.53;;
11663;SDS011;72375;59.302;18.204;2024-03-02T12:02:14;11.83;;;6.47;;
11663;SDS011;72375;59.302;18.204;2024-03-02T12:05:02;11.87;;;6.70;;
11663;SDS011;72375;59.302;18.204;2024-03-02T12:07:50;7.47;;;6.47;;
11663;SDS011;72375;59.302;18.204;2024-03-02T12:10:41;11.17;;;6.73;;
11663;SDS011;72375;59.302;18.204;2024-03-02T12:13:27;13.53;;;7.43;;
11663;SDS011;72375;59.302;18.204;2024-03-02T12:16:13;9.13;;;6.57;;
11663;SDS011;72375;59.302;18.204;2024-03-02T12:19:08;10.70;;;7.10;;
11663;SDS011;72375;59.302;18.204;2024-03-02T12:21:54;10.97;;;6.37;;
11663;SDS011;72375;59.302;18.204;2024-03-02T12:24:42;8.33;;;6.37;;
11663;SDS011;72375;59.302;18.204;2024-03-02T12:27:29;10.10;;;6.40;;
11663;SDS011;72375;59.302;18.204;2024-03-02T12:30:15;9.63;;;6.77;;
11663;SDS011;72375;59.302;18.204;2024-03-02T12:33:02;12.10;;;6.30;;
11663;SDS011;72375;59.302;18.204;2024-03-02T12:35:48;12.20;;;6.37;;
11663;SDS011;72375;59.302;18.204;2024-03-02T12:38:34;8.03;;;6.13;;
11663;SDS011;72375;59.302;18.204;2024-03-02T12:41:21;9.07;;;6.03;;
11663;SDS011;72375;59.302;18.204;2024-03-02T12:44:07;10.20;;;6.20;;
11663;SDS011;72375;59.302;18.204;2024-03-02T12:46:54;10.90;;;5.70;;
11663;SDS011;72375;59.302;18.204;2024-03-02T12:49:39;10.63;;;7.10;;
11663;SDS011;72375;59.302;18.204;2024-03-02T12:52:25;9.20;;;5.60;;
11663;SDS011;72375;59.302;18.204;2024-03-02T12:55:11;11.90;;;5.93;;
11663;SDS011;72375;59.302;18.204;2024-03-02T12:57:58;10.50;;;6.17;;
11663;SDS011;72375;59.302;18.204;2024-03-02T13:00:43;15.63;;;6.43;;
11663;SDS011;72375;59.302;18.204;2024-03-02T13:03:29;13.33;;;6.87;;
11663;SDS011;72375;59.302;18.204;2024-03-02T13:06:15;9.40;;;6.23;;
11663;SDS011;72375;59.302;18.204;2024-03-02T13:09:02;11.70;;;6.73;;
11663;SDS011;72375;59.302;18.204;2024-03-02T13:11:48;9.10;;;5.97;;
11663;SDS011;72375;59.302;18.204;2024-03-02T13:14:35;11.03;;;6.30;;
11663;SDS011;72375;59.302;18.204;2024-03-02T13:17:21;10.37;;;6.13;;
11663;SDS011;72375;59.302;18.204;2024-03-02T13:20:07;8.20;;;5.83;;
11663;SDS011;72375;59.302;18.204;2024-03-02T13:22:54;9.40;;;5.70;;
11663;SDS011;72375;59.302;18.204;2024-03-02T13:25:39;10.57;;;6.20;;
11663;SDS011;72375;59.302;18.204;2024-03-02T13:28:25;10.90;;;5.97;;
11663;SDS011;72375;59.302;18.204;2024-03-02T13:31:12;10.67;;;5.87;;
11663;SDS011;72375;59.302;18.204;2024-03-02T13:33:57;7.27;;;5.27;;
11663;SDS011;72375;59.302;18.204;2024-03-02T13:36:43;8.13;;;5.20;;
11663;SDS011;72375;59.302;18.204;2024-03-02T13:39:29;12.03;;;6.03;;
11663;SDS011;72375;59.302;18.204;2024-03-02T13:42:15;8.53;;;5.70;;
11663;SDS011;72375;59.302;18.204;2024-03-02T13:45:01;8.37;;;5.67;;
11663;SDS011;72375;59.302;18.204;2024-03-02T13:47:49;10.57;;;5.70;;
11663;SDS011;72375;59.302;18.204;2024-03-02T13:50:35;10.83;;;5.47;;
11663;SDS011;72375;59.302;18.204;2024-03-02T13:53:21;10.20;;;5.67;;
11663;SDS011;72375;59.302;18.204;2024-03-02T13:56:07;11.60;;;6.50;;
11663;SDS011;72375;59.302;18.204;2024-03-02T13:58:53;8.63;;;5.17;;
11663;SDS011;72375;59.302;18.204;2024-03-02T14:01:39;9.47;;;5.80;;
11663;SDS011;72375;59.302;18.204;2024-03-02T14:04:26;9.10;;;5.77;;
11663;SDS011;72375;59.302;18.204;2024-03-02T14:07:12;7.53;;;6.13;;
11663;SDS011;72375;59.302;18.204;2024-03-02T14:09:58;10.40;;;5.80;;
11663;SDS011;72375;59.302;18.204;2024-03-02T14:12:43;7.53;;;5.40;;
11663;SDS011;72375;59.302;18.204;2024-03-02T14:15:29;9.20;;;6.10;;
11663;SDS011;72375;59.302;18.204;2024-03-02T14:18:15;8.67;;;5.43;;
11663;SDS011;72375;59.302;18.204;2024-03-02T14:21:02;10.37;;;5.87;;
11663;SDS011;72375;59.302;18.204;2024-03-02T14:23:48;10.30;;;6.07;;
11663;SDS011;72375;59.302;18.204;2024-03-02T14:26:33;11.50;;;6.37;;
11663;SDS011;72375;59.302;18.204;2024-03-02T14:29:20;9.93;;;5.33;;
11663;SDS011;72375;59.302;18.204;2024-03-02T14:32:06;8.23;;;6.17;;
11663;SDS011;72375;59.302;18.204;2024-03-02T14:34:52;8.23;;;6.47;;
11663;SDS011;72375;59.302;18.204;2024-03-02T14:37:39;9.67;;;6.67;;
11663;SDS011;72375;59.302;18.204;2024-03-02T14:40:24;11.57;;;6.20;;
11663;SDS011;72375;59.302;18.204;2024-03-02T14:43:12;8.17;;;5.83;;
11663;SDS011;72375;59.302;18.204;2024-03-02T14:45:58;9.47;;;6.13;;
11663;SDS011;72375;59.302;18.204;2024-03-02T14:48:44;9.27;;;6.20;;
11663;SDS011;72375;59.302;18.204;2024-03-02T14:51:30;8.43;;;6.00;;
11663;SDS011;72375;59.302;18.204;2024-03-02T14:54:17;9.30;;;6.57;;
11663;SDS011;72375;59.302;18.204;2024-03-02T14:57:03;9.77;;;6.07;;
11663;SDS011;72375;59.302;18.204;2024-03-02T14:59:49;13.53;;;5.77;;
11663;SDS011;72375;59.302;18.204;2024-03-02T15:02:35;10.20;;;6.17;;
11663;SDS011;72375;59.302;18.204;2024-03-02T15:05:20;8.70;;;6.17;;
11663;SDS011;72375;59.302;18.204;2024-03-02T15:08:06;12.57;;;6.70;;
11663;SDS011;72375;59.302;18.204;2024-03-02T15:10:53;11.13;;;6.10;;
11663;SDS011;72375;59.302;18.204;2024-03-02T15:13:40;10.13;;;6.10;;
11663;SDS011;72375;59.302;18.204;2024-03-02T15:16:27;11.23;;;6.73;;
11663;SDS011;72375;59.302;18.204;2024-03-02T15:19:12;14.27;;;6.30;;
11663;SDS011;72375;59.302;18.204;2024-03-02T15:21:58;10.93;;;6.90;;
11663;SDS011;72375;59.302;18.204;2024-03-02T15:24:44;11.13;;;6.63;;
11663;SDS011;72375;59.302;18.204;2024-03-02T15:27:32;11.20;;;7.10;;
11663;SDS011;72375;59.302;18.204;2024-03-02T15:30:18;14.37;;;7.43;;
11663;SDS011;72375;59.302;18.204;2024-03-02T15:33:03;11.17;;;7.13;;
11663;SDS011;72375;59.302;18.204;2024-03-02T15:35:49;12.10;;;7.00;;
11663;SDS011;72375;59.302;18.204;2024-03-02T15:38:35;11.73;;;6.77;;
11663;SDS011;72375;59.302;18.204;2024-03-02T15:41:21;9.80;;;6.73;;
11663;SDS011;72375;59.302;18.204;2024-03-02T15:44:08;9.83;;;6.43;;
11663;SDS011;72375;59.302;18.204;2024-03-02T15:46:54;10.27;;;6.57;;
11663;SDS011;72375;59.302;18.204;2024-03-02T15:49:40;9.40;;;5.97;;
11663;SDS011;72375;59.302;18.204;2024-03-02T15:52:25;8.80;;;6.77;;
11663;SDS011;72375;59.302;18.204;2024-03-02T15:55:11;12.23;;;7.07;;
11663;SDS011;72375;59.302;18.204;2024-03-02T15:57:57;11.67;;;6.70;;
11663;SDS011;72375;59.302;18.204;2024-03-02T16:00:44;12.53;;;7.10;;
11663;SDS011;72375;59.302;18.204;2024-03-02T16:03:30;9.77;;;6.67;;
11663;SDS011;72375;59.302;18.204;2024-03-02T16:06:16;14.07;;;6.60;;
11663;SDS011;72375;59.302;18.204;2024-03-02T16:09:02;11.13;;;6.30;;
11663;SDS011;72375;59.302;18.204;2024-03-02T16:11:49;12.20;;;7.10;;
11663;SDS011;72375;59.302;18.204;2024-03-02T16:14:35;9.80;;;6.93;;